sensor_id;sensor_type;location;lat;lon;timestamp;P1;durP1;ratioP1;P2;durP2;ratioP2
9208;SDS011;4639;48.862;9.188;2023-05-07T00:01:55;4.82;;;3.47;;
9208;SDS011;4639;48.862;9.188;2023-05-07T00:04:21;5.65;;;3.80;;
9208;SDS011;4639;48.862;9.188;2023-05-07T00:06:46;3.78;;;3.17;;
9208;SDS011;4639;48.862;9.188;2023-05-07T00:09:12;7.20;;;3.65;;
9208;SDS011;4639;48.862;9.188;2023-05-07T00:11:37;4.78;;;4.25;;
9208;SDS011;4639;48.862;9.188;2023-05-07T00:14:03;6.43;;;3.92;;
9208;SDS011;4639;48.862;9.188;2023-05-07T00:16:29;6.05;;;3.70;;
9208;SDS011;4639;48.862;9.188;2023-05-07T00:18:54;4.32;;;3.78;;
9208;SDS011;4639;48.862;9.188;2023-05-07T00:21:20;4.78;;;3.65;;
9208;SDS011;4639;48.862;9.188;2023-05-07T00:23:46;7.10;;;4.13;;
9208;SDS011;4639;48.862;9.188;2023-05-07T00:26:12;4.75;;;4.05;;
9208;SDS011;4639;48.862;9.188;2023-05-07T00:28:37;5.53;;;3.75;;
9208;SDS011;4639;48.862;9.188;2023-05-07T00:31:03;5.60;;;3.88;;
9208;SDS011;4639;48.862;9.188;2023-05-07T00:33:28;8.23;;;3.97;;
9208;SDS011;4639;48.862;9.188;2023-05-07T00:35:54;5.65;;;3.72;;
9208;SDS011;4639;48.862;9.188;2023-05-07T00:38:20;8.90;;;3.75;;
9208;SDS011;4639;48.862;9.188;2023-05-07T00:40:45;5.82;;;3.95;;
9208;SDS011;4639;48.862;9.188;2023-05-07T00:43:11;7.70;;;4.07;;
9208;SDS011;4639;48.862;9.188;2023-05-07T00:45:37;5.22;;;3.60;;
9208;SDS011;4639;48.862;9.188;2023-05-07T00:48:03;5.35;;;3.97;;
9208;SDS011;4639;48.862;9.188;2023-05-07T00:50:29;6.25;;;3.70;;
9208;SDS011;4639;48.862;9.188;2023-05-07T00:52:56;7.43;;;3.67;;
9208;SDS011;4639;48.862;9.188;2023-05-07T00:55:22;5.45;;;3.80;;
9208;SDS011;4639;48.862;9.188;2023-05-07T00:57:48;5.93;;;3.70;;
9208;SDS011;4639;48.862;9.188;2023-05-07T01:00:15;5.68;;;3.83;;
9208;SDS011;4639;48.862;9.188;2023-05-07T01:02:41;4.78;;;3.67;;
9208;SDS011;4639;48.862;9.188;2023-05-07T01:05:07;5.00;;;3.38;;
9208;SDS011;4639;48.862;9.188;2023-05-07T01:07:37;4.40;;;3.83;;
9208;SDS011;4639;48.862;9.188;2023-05-07T01:10:04;5.82;;;3.90;;
9208;SDS011;4639;48.862;9.188;2023-05-07T01:12:31;5.70;;;3.72;;
9208;SDS011;4639;48.862;9.188;2023-05-07T01:14:57;4.15;;;3.75;;
9208;SDS011;4639;48.862;9.188;2023-05-07T01:17:23;4.22;;;3.58;;
9208;SDS011;4639;48.862;9.188;2023-05-07T01:19:49;7.95;;;4.07;;
9208;SDS011;4639;48.862;9.188;2023-05-07T01:22:15;5.18;;;3.50;;
9208;SDS011;4639;48.862;9.188;2023-05-07T01:24:45;5.30;;;3.40;;
9208;SDS011;4639;48.862;9.188;2023-05-07T01:27:11;5.70;;;3.47;;
9208;SDS011;4639;48.862;9.188;2023-05-07T01:29:37;5.30;;;3.60;;
9208;SDS011;4639;48.862;9.188;2023-05-07T01:32:02;4.15;;;3.63;;
9208;SDS011;4639;48.862;9.188;2023-05-07T01:34:30;3.90;;;3.38;;
9208;SDS011;4639;48.862;9.188;2023-05-07T01:36:57;4.07;;;3.22;;
9208;SDS011;4639;48.862;9.188;2023-05-07T01:39:25;6.13;;;3.38;;
9208;SDS011;4639;48.862;9.188;2023-05-07T01:41:52;6.45;;;3.13;;
9208;SDS011;4639;48.862;9.188;2023-05-07T01:44:20;5.68;;;3.05;;
9208;SDS011;4639;48.862;9.188;2023-05-07T01:46:46;4.07;;;3.20;;
9208;SDS011;4639;48.862;9.188;2023-05-07T01:49:13;7.85;;;3.38;;
9208;SDS011;4639;48.862;9.188;2023-05-07T01:51:39;7.15;;;3.67;;
9208;SDS011;4639;48.862;9.188;2023-05-07T01:54:05;3.65;;;3.33;;
9208;SDS011;4639;48.862;9.188;2023-05-07T01:56:34;4.03;;;3.50;;
9208;SDS011;4639;48.862;9.188;2023-05-07T01:59:00;4.05;;;3.42;;
9208;SDS011;4639;48.862;9.188;2023-05-07T02:01:25;4.68;;;3.35;;
9208;SDS011;4639;48.862;9.188;2023-05-07T02:03:51;4.70;;;3.80;;
9208;SDS011;4639;48.862;9.188;2023-05-07T02:06:16;6.65;;;3.75;;
9208;SDS011;4639;48.862;9.188;2023-05-07T02:08:42;3.72;;;3.13;;
9208;SDS011;4639;48.862;9.188;2023-05-07T02:11:08;4.70;;;3.33;;
9208;SDS011;4639;48.862;9.188;2023-05-07T02:13:34;6.72;;;3.45;;
9208;SDS011;4639;48.862;9.188;2023-05-07T02:15:59;5.03;;;3.42;;
9208;SDS011;4639;48.862;9.188;2023-05-07T02:18:25;3.80;;;2.75;;
9208;SDS011;4639;48.862;9.188;2023-05-07T02:20:51;3.15;;;2.85;;
9208;SDS011;4639;48.862;9.188;2023-05-07T02:23:17;3.17;;;2.88;;
9208;SDS011;4639;48.862;9.188;2023-05-07T02:25:43;3.80;;;3.08;;
9208;SDS011;4639;48.862;9.188;2023-05-07T02:28:08;5.13;;;3.00;;
9208;SDS011;4639;48.862;9.188;2023-05-07T02:30:35;4.00;;;3.30;;
9208;SDS011;4639;48.862;9.188;2023-05-07T02:33:02;3.65;;;3.20;;
9208;SDS011;4639;48.862;9.188;2023-05-07T02:35:28;4.68;;;3.13;;
9208;SDS011;4639;48.862;9.188;2023-05-07T02:37:53;4.45;;;3.35;;
9208;SDS011;4639;48.862;9.188;2023-05-07T02:40:19;7.18;;;3.40;;
9208;SDS011;4639;48.862;9.188;2023-05-07T02:42:44;3.58;;;3.15;;
9208;SDS011;4639;48.862;9.188;2023-05-07T02:45:10;5.85;;;3.05;;
9208;SDS011;4639;48.862;9.188;2023-05-07T02:47:36;4.22;;;3.13;;
9208;SDS011;4639;48.862;9.188;2023-05-07T02:50:01;4.00;;;3.03;;
9208;SDS011;4639;48.862;9.188;2023-05-07T02:52:27;3.20;;;2.90;;
9208;SDS011;4639;48.862;9.188;2023-05-07T02:54:53;4.53;;;3.10;;
9208;SDS011;4639;48.862;9.188;2023-05-07T02:57:18;5.65;;;3.67;;
9208;SDS011;4639;48.862;9.188;2023-05-07T02:59:44;3.25;;;2.95;;
9208;SDS011;4639;48.862;9.188;2023-05-07T03:02:09;3.67;;;3.00;;
9208;SDS011;4639;48.862;9.188;2023-05-07T03:04:35;4.85;;;3.22;;
9208;SDS011;4639;48.862;9.188;2023-05-07T03:07:01;4.53;;;3.28;;
9208;SDS011;4639;48.862;9.188;2023-05-07T03:09:27;4.10;;;3.30;;
9208;SDS011;4639;48.862;9.188;2023-05-07T03:11:52;3.15;;;2.92;;
9208;SDS011;4639;48.862;9.188;2023-05-07T03:14:18;3.55;;;3.20;;
9208;SDS011;4639;48.862;9.188;2023-05-07T03:16:43;4.45;;;3.58;;
9208;SDS011;4639;48.862;9.188;2023-05-07T03:19:09;4.47;;;3.30;;
9208;SDS011;4639;48.862;9.188;2023-05-07T03:21:35;4.28;;;3.22;;
9208;SDS011;4639;48.862;9.188;2023-05-07T03:24:00;7.05;;;3.58;;
9208;SDS011;4639;48.862;9.188;2023-05-07T03:26:26;4.18;;;3.50;;
9208;SDS011;4639;48.862;9.188;2023-05-07T03:28:51;4.25;;;3.55;;
9208;SDS011;4639;48.862;9.188;2023-05-07T03:31:17;4.10;;;3.70;;
9208;SDS011;4639;48.862;9.188;2023-05-07T03:33:50;6.70;;;3.95;;
9208;SDS011;4639;48.862;9.188;2023-05-07T03:36:17;4.45;;;4.05;;
9208;SDS011;4639;48.862;9.188;2023-05-07T03:38:43;3.70;;;3.40;;
9208;SDS011;4639;48.862;9.188;2023-05-07T03:41:08;4.00;;;3.60;;
9208;SDS011;4639;48.862;9.188;2023-05-07T03:43:34;4.85;;;3.90;;
9208;SDS011;4639;48.862;9.188;2023-05-07T03:46:00;8.35;;;3.63;;
9208;SDS011;4639;48.862;9.188;2023-05-07T03:48:25;7.38;;;4.03;;
9208;SDS011;4639;48.862;9.188;2023-05-07T03:50:51;4.38;;;3.53;;
9208;SDS011;4639;48.862;9.188;2023-05-07T03:53:17;5.68;;;4.30;;
9208;SDS011;4639;48.862;9.188;2023-05-07T03:55:42;5.78;;;4.22;;
9208;SDS011;4639;48.862;9.188;2023-05-07T03:58:08;4.43;;;4.03;;
9208;SDS011;4639;48.862;9.188;2023-05-07T04:00:33;6.85;;;4.40;;
9208;SDS011;4639;48.862;9.188;2023-05-07T04:03:03;7.40;;;4.43;;
9208;SDS011;4639;48.862;9.188;2023-05-07T04:05:29;4.38;;;3.78;;
9208;SDS011;4639;48.862;9.188;2023-05-07T04:07:55;6.53;;;4.20;;
9208;SDS011;4639;48.862;9.188;2023-05-07T04:10:22;7.45;;;4.18;;
9208;SDS011;4639;48.862;9.188;2023-05-07T04:12:48;4.30;;;3.30;;
9208;SDS011;4639;48.862;9.188;2023-05-07T04:15:13;4.88;;;3.55;;
9208;SDS011;4639;48.862;9.188;2023-05-07T04:17:39;4.93;;;3.50;;
9208;SDS011;4639;48.862;9.188;2023-05-07T04:20:06;5.07;;;4.25;;
9208;SDS011;4639;48.862;9.188;2023-05-07T04:22:35;4.28;;;3.60;;
9208;SDS011;4639;48.862;9.188;2023-05-07T04:25:01;5.60;;;4.10;;
9208;SDS011;4639;48.862;9.188;2023-05-07T04:27:27;3.88;;;3.53;;
9208;SDS011;4639;48.862;9.188;2023-05-07T04:29:53;6.50;;;4.05;;
9208;SDS011;4639;48.862;9.188;2023-05-07T04:32:21;4.40;;;3.28;;
9208;SDS011;4639;48.862;9.188;2023-05-07T04:34:47;6.32;;;3.50;;
9208;SDS011;4639;48.862;9.188;2023-05-07T04:37:13;6.30;;;3.40;;
9208;SDS011;4639;48.862;9.188;2023-05-07T04:39:38;3.83;;;3.33;;
9208;SDS011;4639;48.862;9.188;2023-05-07T04:42:04;4.15;;;3.70;;
9208;SDS011;4639;48.862;9.188;2023-05-07T04:44:32;4.25;;;3.85;;
9208;SDS011;4639;48.862;9.188;2023-05-07T04:46:58;4.30;;;3.90;;
9208;SDS011;4639;48.862;9.188;2023-05-07T04:49:23;4.57;;;4.03;;
9208;SDS011;4639;48.862;9.188;2023-05-07T04:51:49;7.63;;;4.40;;
9208;SDS011;4639;48.862;9.188;2023-05-07T04:54:15;4.65;;;3.28;;
9208;SDS011;4639;48.862;9.188;2023-05-07T04:56:40;5.05;;;3.92;;
9208;SDS011;4639;48.862;9.188;2023-05-07T04:59:06;5.47;;;3.70;;
9208;SDS011;4639;48.862;9.188;2023-05-07T05:01:31;3.40;;;3.10;;
9208;SDS011;4639;48.862;9.188;2023-05-07T05:03:58;4.18;;;3.60;;
9208;SDS011;4639;48.862;9.188;2023-05-07T05:06:25;3.67;;;3.15;;
9208;SDS011;4639;48.862;9.188;2023-05-07T05:08:50;3.75;;;3.25;;
9208;SDS011;4639;48.862;9.188;2023-05-07T05:11:16;3.53;;;3.13;;
9208;SDS011;4639;48.862;9.188;2023-05-07T05:13:42;4.07;;;3.30;;
9208;SDS011;4639;48.862;9.188;2023-05-07T05:16:07;5.03;;;3.72;;
9208;SDS011;4639;48.862;9.188;2023-05-07T05:18:33;3.75;;;3.30;;
9208;SDS011;4639;48.862;9.188;2023-05-07T05:20:58;5.20;;;3.53;;
9208;SDS011;4639;48.862;9.188;2023-05-07T05:23:24;7.13;;;3.80;;
9208;SDS011;4639;48.862;9.188;2023-05-07T05:25:49;5.60;;;3.95;;
9208;SDS011;4639;48.862;9.188;2023-05-07T05:28:15;6.07;;;4.55;;
9208;SDS011;4639;48.862;9.188;2023-05-07T05:30:40;5.43;;;4.25;;
9208;SDS011;4639;48.862;9.188;2023-05-07T05:33:06;4.97;;;4.22;;
9208;SDS011;4639;48.862;9.188;2023-05-07T05:35:32;6.03;;;4.93;;
9208;SDS011;4639;48.862;9.188;2023-05-07T05:37:57;4.63;;;4.10;;
9208;SDS011;4639;48.862;9.188;2023-05-07T05:40:23;4.32;;;3.83;;
9208;SDS011;4639;48.862;9.188;2023-05-07T05:42:48;4.57;;;3.25;;
9208;SDS011;4639;48.862;9.188;2023-05-07T05:45:14;7.28;;;4.00;;
9208;SDS011;4639;48.862;9.188;2023-05-07T05:47:40;4.25;;;3.80;;
9208;SDS011;4639;48.862;9.188;2023-05-07T05:50:06;3.35;;;2.88;;
9208;SDS011;4639;48.862;9.188;2023-05-07T05:52:32;7.43;;;3.03;;
9208;SDS011;4639;48.862;9.188;2023-05-07T05:54:57;4.60;;;3.00;;
9208;SDS011;4639;48.862;9.188;2023-05-07T05:57:23;4.53;;;2.70;;
9208;SDS011;4639;48.862;9.188;2023-05-07T05:59:49;4.20;;;3.10;;
9208;SDS011;4639;48.862;9.188;2023-05-07T06:02:14;4.57;;;2.92;;
9208;SDS011;4639;48.862;9.188;2023-05-07T06:04:40;2.97;;;2.60;;
9208;SDS011;4639;48.862;9.188;2023-05-07T06:07:07;2.92;;;2.65;;
9208;SDS011;4639;48.862;9.188;2023-05-07T06:09:32;4.70;;;2.60;;
9208;SDS011;4639;48.862;9.188;2023-05-07T06:11:58;4.50;;;2.72;;
9208;SDS011;4639;48.862;9.188;2023-05-07T06:14:24;3.85;;;2.90;;
9208;SDS011;4639;48.862;9.188;2023-05-07T06:16:49;2.92;;;2.63;;
9208;SDS011;4639;48.862;9.188;2023-05-07T06:19:15;4.35;;;2.47;;
9208;SDS011;4639;48.862;9.188;2023-05-07T06:21:43;2.95;;;2.65;;
9208;SDS011;4639;48.862;9.188;2023-05-07T06:24:08;4.18;;;2.78;;
9208;SDS011;4639;48.862;9.188;2023-05-07T06:26:34;4.18;;;3.20;;
9208;SDS011;4639;48.862;9.188;2023-05-07T06:28:59;3.28;;;2.65;;
9208;SDS011;4639;48.862;9.188;2023-05-07T06:31:28;2.83;;;2.45;;
9208;SDS011;4639;48.862;9.188;2023-05-07T06:33:56;3.08;;;2.30;;
9208;SDS011;4639;48.862;9.188;2023-05-07T06:36:21;3.53;;;2.63;;
9208;SDS011;4639;48.862;9.188;2023-05-07T06:38:47;2.72;;;2.53;;
9208;SDS011;4639;48.862;9.188;2023-05-07T06:41:12;4.75;;;2.55;;
9208;SDS011;4639;48.862;9.188;2023-05-07T06:43:38;4.40;;;2.80;;
9208;SDS011;4639;48.862;9.188;2023-05-07T06:46:05;3.75;;;2.88;;
9208;SDS011;4639;48.862;9.188;2023-05-07T06:48:30;3.38;;;2.63;;
9208;SDS011;4639;48.862;9.188;2023-05-07T06:50:56;3.53;;;2.75;;
9208;SDS011;4639;48.862;9.188;2023-05-07T06:53:22;3.25;;;2.20;;
9208;SDS011;4639;48.862;9.188;2023-05-07T06:55:48;5.15;;;2.95;;
9208;SDS011;4639;48.862;9.188;2023-05-07T06:58:14;5.10;;;2.65;;
9208;SDS011;4639;48.862;9.188;2023-05-07T07:00:40;3.28;;;2.38;;
9208;SDS011;4639;48.862;9.188;2023-05-07T07:03:05;5.20;;;2.95;;
9208;SDS011;4639;48.862;9.188;2023-05-07T07:05:31;3.20;;;2.67;;
9208;SDS011;4639;48.862;9.188;2023-05-07T07:07:57;4.55;;;2.88;;
9208;SDS011;4639;48.862;9.188;2023-05-07T07:10:23;3.15;;;2.85;;
9208;SDS011;4639;48.862;9.188;2023-05-07T07:12:48;5.57;;;2.83;;
9208;SDS011;4639;48.862;9.188;2023-05-07T07:15:14;4.40;;;2.78;;
9208;SDS011;4639;48.862;9.188;2023-05-07T07:17:40;4.65;;;2.70;;
9208;SDS011;4639;48.862;9.188;2023-05-07T07:20:06;6.22;;;2.70;;
9208;SDS011;4639;48.862;9.188;2023-05-07T07:22:32;4.40;;;2.65;;
9208;SDS011;4639;48.862;9.188;2023-05-07T07:24:58;5.97;;;2.67;;
9208;SDS011;4639;48.862;9.188;2023-05-07T07:27:23;4.45;;;2.60;;
9208;SDS011;4639;48.862;9.188;2023-05-07T07:29:49;3.70;;;2.53;;
9208;SDS011;4639;48.862;9.188;2023-05-07T07:32:15;3.30;;;2.47;;
9208;SDS011;4639;48.862;9.188;2023-05-07T07:34:40;2.75;;;2.55;;
9208;SDS011;4639;48.862;9.188;2023-05-07T07:37:06;4.00;;;2.83;;
9208;SDS011;4639;48.862;9.188;2023-05-07T07:39:32;6.38;;;2.83;;
9208;SDS011;4639;48.862;9.188;2023-05-07T07:41:58;2.85;;;2.55;;
9208;SDS011;4639;48.862;9.188;2023-05-07T07:44:23;2.53;;;2.10;;
9208;SDS011;4639;48.862;9.188;2023-05-07T07:46:49;5.25;;;2.75;;
9208;SDS011;4639;48.862;9.188;2023-05-07T07:49:15;5.95;;;2.70;;
9208;SDS011;4639;48.862;9.188;2023-05-07T07:51:41;4.18;;;2.85;;
9208;SDS011;4639;48.862;9.188;2023-05-07T07:54:06;5.65;;;2.72;;
9208;SDS011;4639;48.862;9.188;2023-05-07T07:56:32;4.45;;;2.75;;
9208;SDS011;4639;48.862;9.188;2023-05-07T07:58:58;3.33;;;2.70;;
9208;SDS011;4639;48.862;9.188;2023-05-07T08:01:24;4.55;;;3.00;;
9208;SDS011;4639;48.862;9.188;2023-05-07T08:03:50;3.17;;;2.70;;
9208;SDS011;4639;48.862;9.188;2023-05-07T08:06:16;3.92;;;2.85;;
9208;SDS011;4639;48.862;9.188;2023-05-07T08:08:42;3.47;;;2.90;;
9208;SDS011;4639;48.862;9.188;2023-05-07T08:11:08;5.03;;;2.47;;
9208;SDS011;4639;48.862;9.188;2023-05-07T08:13:33;5.65;;;2.88;;
9208;SDS011;4639;48.862;9.188;2023-05-07T08:15:59;3.22;;;2.50;;
9208;SDS011;4639;48.862;9.188;2023-05-07T08:18:25;3.53;;;2.63;;
9208;SDS011;4639;48.862;9.188;2023-05-07T08:20:51;4.55;;;2.67;;
9208;SDS011;4639;48.862;9.188;2023-05-07T08:23:16;5.47;;;2.50;;
9208;SDS011;4639;48.862;9.188;2023-05-07T08:25:42;3.75;;;2.50;;
9208;SDS011;4639;48.862;9.188;2023-05-07T08:28:08;2.55;;;2.35;;
9208;SDS011;4639;48.862;9.188;2023-05-07T08:30:33;5.57;;;2.75;;
9208;SDS011;4639;48.862;9.188;2023-05-07T08:33:00;3.17;;;2.63;;
9208;SDS011;4639;48.862;9.188;2023-05-07T08:35:25;3.45;;;2.70;;
9208;SDS011;4639;48.862;9.188;2023-05-07T08:37:52;4.28;;;2.47;;
9208;SDS011;4639;48.862;9.188;2023-05-07T08:40:17;4.38;;;2.60;;
9208;SDS011;4639;48.862;9.188;2023-05-07T08:42:43;3.08;;;2.30;;
9208;SDS011;4639;48.862;9.188;2023-05-07T08:45:10;2.40;;;2.20;;
9208;SDS011;4639;48.862;9.188;2023-05-07T08:47:58;5.50;;;2.60;;
9208;SDS011;4639;48.862;9.188;2023-05-07T08:50:24;4.15;;;2.53;;
9208;SDS011;4639;48.862;9.188;2023-05-07T08:52:50;3.05;;;2.33;;
9208;SDS011;4639;48.862;9.188;2023-05-07T08:55:15;4.50;;;2.70;;
9208;SDS011;4639;48.862;9.188;2023-05-07T08:57:42;3.95;;;2.88;;
9208;SDS011;4639;48.862;9.188;2023-05-07T09:00:08;4.07;;;2.65;;
9208;SDS011;4639;48.862;9.188;2023-05-07T09:02:35;4.78;;;3.33;;
9208;SDS011;4639;48.862;9.188;2023-05-07T09:05:01;3.33;;;2.95;;
9208;SDS011;4639;48.862;9.188;2023-05-07T09:07:27;4.82;;;2.47;;
9208;SDS011;4639;48.862;9.188;2023-05-07T09:09:55;5.82;;;2.85;;
9208;SDS011;4639;48.862;9.188;2023-05-07T09:12:22;3.75;;;2.85;;
9208;SDS011;4639;48.862;9.188;2023-05-07T09:14:47;5.25;;;2.90;;
9208;SDS011;4639;48.862;9.188;2023-05-07T09:17:14;5.57;;;2.85;;
9208;SDS011;4639;48.862;9.188;2023-05-07T09:19:41;3.38;;;2.85;;
9208;SDS011;4639;48.862;9.188;2023-05-07T09:22:08;3.67;;;2.90;;
9208;SDS011;4639;48.862;9.188;2023-05-07T09:24:34;3.22;;;2.65;;
9208;SDS011;4639;48.862;9.188;2023-05-07T09:27:02;2.88;;;2.60;;
9208;SDS011;4639;48.862;9.188;2023-05-07T09:29:28;4.85;;;2.95;;
9208;SDS011;4639;48.862;9.188;2023-05-07T09:31:55;6.22;;;2.92;;
9208;SDS011;4639;48.862;9.188;2023-05-07T09:34:21;3.97;;;2.53;;
9208;SDS011;4639;48.862;9.188;2023-05-07T09:36:47;4.97;;;2.78;;
9208;SDS011;4639;48.862;9.188;2023-05-07T09:39:13;3.65;;;2.67;;
9208;SDS011;4639;48.862;9.188;2023-05-07T09:41:45;6.82;;;2.47;;
9208;SDS011;4639;48.862;9.188;2023-05-07T09:44:12;10.50;;;2.58;;
9208;SDS011;4639;48.862;9.188;2023-05-07T09:46:39;4.28;;;2.30;;
9208;SDS011;4639;48.862;9.188;2023-05-07T09:49:08;3.25;;;2.60;;
9208;SDS011;4639;48.862;9.188;2023-05-07T09:51:45;2.67;;;2.42;;
9208;SDS011;4639;48.862;9.188;2023-05-07T09:54:14;3.63;;;2.80;;
9208;SDS011;4639;48.862;9.188;2023-05-07T09:56:40;4.15;;;2.83;;
9208;SDS011;4639;48.862;9.188;2023-05-07T09:59:07;2.38;;;2.17;;
9208;SDS011;4639;48.862;9.188;2023-05-07T10:01:36;2.65;;;1.95;;
9208;SDS011;4639;48.862;9.188;2023-05-07T10:04:02;3.35;;;2.15;;
9208;SDS011;4639;48.862;9.188;2023-05-07T10:06:29;2.70;;;2.22;;
9208;SDS011;4639;48.862;9.188;2023-05-07T10:08:55;3.97;;;2.20;;
9208;SDS011;4639;48.862;9.188;2023-05-07T10:11:21;3.53;;;2.38;;
9208;SDS011;4639;48.862;9.188;2023-05-07T10:13:48;5.32;;;2.00;;
9208;SDS011;4639;48.862;9.188;2023-05-07T10:16:14;3.60;;;2.38;;
9208;SDS011;4639;48.862;9.188;2023-05-07T10:18:40;2.50;;;1.88;;
9208;SDS011;4639;48.862;9.188;2023-05-07T10:21:19;4.82;;;2.10;;
9208;SDS011;4639;48.862;9.188;2023-05-07T10:23:49;2.65;;;2.28;;
9208;SDS011;4639;48.862;9.188;2023-05-07T10:26:35;5.53;;;2.17;;
9208;SDS011;4639;48.862;9.188;2023-05-07T10:29:12;4.35;;;2.30;;
9208;SDS011;4639;48.862;9.188;2023-05-07T10:35:02;4.22;;;2.17;;
9208;SDS011;4639;48.862;9.188;2023-05-07T10:37:31;2.33;;;2.00;;
9208;SDS011;4639;48.862;9.188;2023-05-07T10:39:57;3.03;;;2.15;;
9208;SDS011;4639;48.862;9.188;2023-05-07T10:42:22;2.90;;;2.10;;
9208;SDS011;4639;48.862;9.188;2023-05-07T10:44:48;4.68;;;2.20;;
9208;SDS011;4639;48.862;9.188;2023-05-07T10:47:15;2.97;;;1.98;;
9208;SDS011;4639;48.862;9.188;2023-05-07T10:52:12;2.10;;;1.90;;
9208;SDS011;4639;48.862;9.188;2023-05-07T10:54:41;2.15;;;1.77;;
9208;SDS011;4639;48.862;9.188;2023-05-07T11:05:24;3.33;;;1.90;;
9208;SDS011;4639;48.862;9.188;2023-05-07T11:07:54;2.75;;;1.90;;
9208;SDS011;4639;48.862;9.188;2023-05-07T11:10:46;4.45;;;2.58;;
9208;SDS011;4639;48.862;9.188;2023-05-07T11:13:16;6.25;;;1.95;;
9208;SDS011;4639;48.862;9.188;2023-05-07T11:15:47;3.38;;;2.10;;
9208;SDS011;4639;48.862;9.188;2023-05-07T11:18:16;3.42;;;1.90;;
9208;SDS011;4639;48.862;9.188;2023-05-07T11:20:46;5.45;;;2.13;;
9208;SDS011;4639;48.862;9.188;2023-05-07T11:28:39;3.55;;;1.88;;
9208;SDS011;4639;48.862;9.188;2023-05-07T11:31:06;2.00;;;1.83;;
9208;SDS011;4639;48.862;9.188;2023-05-07T11:33:32;2.10;;;1.90;;
9208;SDS011;4639;48.862;9.188;2023-05-07T11:35:59;6.13;;;2.13;;
9208;SDS011;4639;48.862;9.188;2023-05-07T11:38:25;2.08;;;1.80;;
9208;SDS011;4639;48.862;9.188;2023-05-07T11:40:51;4.68;;;2.17;;
9208;SDS011;4639;48.862;9.188;2023-05-07T11:43:18;2.45;;;2.03;;
9208;SDS011;4639;48.862;9.188;2023-05-07T11:45:44;3.28;;;1.90;;
9208;SDS011;4639;48.862;9.188;2023-05-07T11:48:11;2.50;;;1.60;;
9208;SDS011;4639;48.862;9.188;2023-05-07T11:50:49;2.63;;;1.60;;
9208;SDS011;4639;48.862;9.188;2023-05-07T11:53:40;2.63;;;1.60;;
9208;SDS011;4639;48.862;9.188;2023-05-07T11:56:11;3.40;;;1.90;;
9208;SDS011;4639;48.862;9.188;2023-05-07T11:58:39;4.10;;;1.85;;
9208;SDS011;4639;48.862;9.188;2023-05-07T12:01:07;4.30;;;1.80;;
9208;SDS011;4639;48.862;9.188;2023-05-07T12:03:34;2.42;;;1.65;;
9208;SDS011;4639;48.862;9.188;2023-05-07T12:06:02;2.80;;;1.63;;
9208;SDS011;4639;48.862;9.188;2023-05-07T12:08:30;4.07;;;1.85;;
9208;SDS011;4639;48.862;9.188;2023-05-07T12:10:56;1.70;;;1.50;;
9208;SDS011;4639;48.862;9.188;2023-05-07T12:13:22;3.50;;;1.50;;
9208;SDS011;4639;48.862;9.188;2023-05-07T12:15:54;4.30;;;1.95;;
9208;SDS011;4639;48.862;9.188;2023-05-07T12:18:20;2.55;;;1.75;;
9208;SDS011;4639;48.862;9.188;2023-05-07T12:20:47;2.20;;;1.60;;
9208;SDS011;4639;48.862;9.188;2023-05-07T12:23:13;5.50;;;1.90;;
9208;SDS011;4639;48.862;9.188;2023-05-07T12:25:40;2.17;;;1.50;;
9208;SDS011;4639;48.862;9.188;2023-05-07T12:28:12;1.63;;;1.50;;
9208;SDS011;4639;48.862;9.188;2023-05-07T12:30:40;1.90;;;1.50;;
9208;SDS011;4639;48.862;9.188;2023-05-07T12:33:07;2.25;;;1.40;;
9208;SDS011;4639;48.862;9.188;2023-05-07T12:35:37;4.30;;;1.90;;
9208;SDS011;4639;48.862;9.188;2023-05-07T12:38:07;3.05;;;1.52;;
9208;SDS011;4639;48.862;9.188;2023-05-07T12:40:40;3.38;;;1.60;;
9208;SDS011;4639;48.862;9.188;2023-05-07T12:43:07;3.72;;;1.50;;
9208;SDS011;4639;48.862;9.188;2023-05-07T12:45:41;5.95;;;1.60;;
9208;SDS011;4639;48.862;9.188;2023-05-07T12:48:06;4.10;;;1.63;;
9208;SDS011;4639;48.862;9.188;2023-05-07T12:50:38;2.03;;;1.83;;
9208;SDS011;4639;48.862;9.188;2023-05-07T12:53:04;7.60;;;2.10;;
9208;SDS011;4639;48.862;9.188;2023-05-07T12:55:31;2.53;;;1.60;;
9208;SDS011;4639;48.862;9.188;2023-05-07T12:57:57;2.33;;;1.95;;
9208;SDS011;4639;48.862;9.188;2023-05-07T13:00:33;8.27;;;2.25;;
9208;SDS011;4639;48.862;9.188;2023-05-07T13:03:00;3.70;;;2.25;;
9208;SDS011;4639;48.862;9.188;2023-05-07T13:05:25;5.10;;;2.28;;
9208;SDS011;4639;48.862;9.188;2023-05-07T13:07:54;4.72;;;2.40;;
9208;SDS011;4639;48.862;9.188;2023-05-07T13:10:21;5.05;;;2.50;;
9208;SDS011;4639;48.862;9.188;2023-05-07T13:12:50;6.10;;;3.53;;
9208;SDS011;4639;48.862;9.188;2023-05-07T13:15:17;3.45;;;2.35;;
9208;SDS011;4639;48.862;9.188;2023-05-07T13:17:42;5.88;;;2.95;;
9208;SDS011;4639;48.862;9.188;2023-05-07T13:20:11;6.95;;;3.30;;
9208;SDS011;4639;48.862;9.188;2023-05-07T13:22:37;6.10;;;3.88;;
9208;SDS011;4639;48.862;9.188;2023-05-07T13:25:03;4.68;;;3.92;;
9208;SDS011;4639;48.862;9.188;2023-05-07T13:27:29;3.47;;;2.35;;
9208;SDS011;4639;48.862;9.188;2023-05-07T13:30:01;2.20;;;1.80;;
9208;SDS011;4639;48.862;9.188;2023-05-07T13:32:28;2.85;;;1.50;;
9208;SDS011;4639;48.862;9.188;2023-05-07T13:34:53;3.33;;;1.42;;
9208;SDS011;4639;48.862;9.188;2023-05-07T13:37:19;2.38;;;1.55;;
9208;SDS011;4639;48.862;9.188;2023-05-07T13:39:45;1.77;;;1.48;;
9208;SDS011;4639;48.862;9.188;2023-05-07T13:42:10;3.97;;;2.00;;
9208;SDS011;4639;48.862;9.188;2023-05-07T13:44:36;5.80;;;2.13;;
9208;SDS011;4639;48.862;9.188;2023-05-07T13:47:01;6.78;;;1.70;;
9208;SDS011;4639;48.862;9.188;2023-05-07T13:49:27;5.60;;;2.10;;
9208;SDS011;4639;48.862;9.188;2023-05-07T13:51:53;2.47;;;1.77;;
9208;SDS011;4639;48.862;9.188;2023-05-07T13:54:18;3.08;;;2.00;;
9208;SDS011;4639;48.862;9.188;2023-05-07T13:56:44;2.30;;;1.50;;
9208;SDS011;4639;48.862;9.188;2023-05-07T13:59:09;2.15;;;1.40;;
9208;SDS011;4639;48.862;9.188;2023-05-07T14:01:35;3.78;;;1.40;;
9208;SDS011;4639;48.862;9.188;2023-05-07T14:04:01;2.65;;;1.33;;
9208;SDS011;4639;48.862;9.188;2023-05-07T14:06:26;3.03;;;1.10;;
9208;SDS011;4639;48.862;9.188;2023-05-07T14:08:52;1.75;;;1.63;;
9208;SDS011;4639;48.862;9.188;2023-05-07T14:11:17;2.45;;;1.40;;
9208;SDS011;4639;48.862;9.188;2023-05-07T14:13:43;2.80;;;1.52;;
9208;SDS011;4639;48.862;9.188;2023-05-07T14:16:08;2.40;;;1.20;;
9208;SDS011;4639;48.862;9.188;2023-05-07T14:18:34;3.35;;;1.25;;
9208;SDS011;4639;48.862;9.188;2023-05-07T14:21:01;3.40;;;1.50;;
9208;SDS011;4639;48.862;9.188;2023-05-07T14:23:27;1.80;;;1.33;;
9208;SDS011;4639;48.862;9.188;2023-05-07T14:25:53;2.47;;;1.48;;
9208;SDS011;4639;48.862;9.188;2023-05-07T14:28:19;3.10;;;1.42;;
9208;SDS011;4639;48.862;9.188;2023-05-07T14:30:44;3.05;;;1.30;;
9208;SDS011;4639;48.862;9.188;2023-05-07T14:33:10;2.55;;;1.40;;
9208;SDS011;4639;48.862;9.188;2023-05-07T14:35:35;5.55;;;1.90;;
9208;SDS011;4639;48.862;9.188;2023-05-07T14:38:01;3.13;;;1.70;;
9208;SDS011;4639;48.862;9.188;2023-05-07T14:40:27;2.40;;;1.80;;
9208;SDS011;4639;48.862;9.188;2023-05-07T14:42:55;2.85;;;1.60;;
9208;SDS011;4639;48.862;9.188;2023-05-07T14:45:22;3.88;;;1.90;;
9208;SDS011;4639;48.862;9.188;2023-05-07T14:47:47;3.40;;;2.22;;
9208;SDS011;4639;48.862;9.188;2023-05-07T14:50:13;2.83;;;1.70;;
9208;SDS011;4639;48.862;9.188;2023-05-07T14:52:38;4.30;;;3.08;;
9208;SDS011;4639;48.862;9.188;2023-05-07T14:55:04;3.15;;;2.33;;
9208;SDS011;4639;48.862;9.188;2023-05-07T14:57:30;2.83;;;2.08;;
9208;SDS011;4639;48.862;9.188;2023-05-07T14:59:59;2.70;;;1.80;;
9208;SDS011;4639;48.862;9.188;2023-05-07T15:02:26;2.90;;;2.00;;
9208;SDS011;4639;48.862;9.188;2023-05-07T15:04:51;2.20;;;1.80;;
9208;SDS011;4639;48.862;9.188;2023-05-07T15:07:17;4.85;;;2.00;;
9208;SDS011;4639;48.862;9.188;2023-05-07T15:09:43;2.03;;;1.77;;
9208;SDS011;4639;48.862;9.188;2023-05-07T15:12:10;5.03;;;2.10;;
9208;SDS011;4639;48.862;9.188;2023-05-07T15:14:36;3.13;;;2.22;;
9208;SDS011;4639;48.862;9.188;2023-05-07T15:17:02;2.25;;;2.00;;
9208;SDS011;4639;48.862;9.188;2023-05-07T15:19:28;1.92;;;1.83;;
9208;SDS011;4639;48.862;9.188;2023-05-07T15:21:56;2.45;;;1.85;;
9208;SDS011;4639;48.862;9.188;2023-05-07T15:24:22;3.70;;;3.30;;
9208;SDS011;4639;48.862;9.188;2023-05-07T15:26:48;3.65;;;2.40;;
9208;SDS011;4639;48.862;9.188;2023-05-07T15:29:14;2.80;;;2.33;;
9208;SDS011;4639;48.862;9.188;2023-05-07T15:31:40;4.45;;;2.78;;